Rode Kruis Ziekenhuis Heliport

NL-0011 · North Holland, Holandia

Historia METAR NL-0011 · Rode Kruis Ziekenhuis Heliport

Poniżej widzisz METAR-y z ostatnich kilku dni. Wybierz rok, aby przeglądać starsze METAR-y, począwszy od roku 2007.

15 kwietnia 2024

Czas Kod Pogoda Temp. Widoczność Sufit Wiatr METAR/SPECI
10:25
V
10 °C 10 km+ 3.200 ft 210° 210° 20 kt METAR EHAM 150825Z 21020KT 180V240 9999 -RA FEW019 SCT022 BKN032 10/06 Q1006 TEMPO 7000
09:55
V
10 °C 10 km+ 4.200 ft 210° 210° 20 kt METAR EHAM 150755Z 21020KT 9999 -RA FEW027 BKN042 10/06 Q1006 NOSIG
09:25
V
10 °C 10 km+ - 200° 200° 15 kt METAR EHAM 150725Z 20015KT 9999 FEW027 10/06 Q1007 NOSIG
08:55
V
10 °C 10 km+ - 210° 210° 13 kt METAR EHAM 150655Z 21013KT 9999 FEW025 10/06 Q1008 NOSIG
08:25
V
10 °C 10 km+ - 210° 210° 15 kt METAR EHAM 150625Z 21015KT 9999 FEW024 10/06 Q1009 NOSIG
07:55
V
9 °C 10 km+ - 220° 220° 13 kt METAR EHAM 150555Z 22013KT 9999 SCT022 09/06 Q1009 NOSIG
07:25
V
9 °C 10 km+ - 220° 220° 10 kt METAR EHAM 150525Z 22010KT 9999 FEW020 09/05 Q1009 NOSIG
06:55
V
7 °C 10 km+ - 220° 220° 9 kt METAR EHAM 150455Z 22009KT 9999 FEW022 07/05 Q1010 NOSIG
06:25
V
8 °C 10 km+ - 220° 220° 9 kt METAR EHAM 150425Z 22009KT 9999 FEW040 08/05 Q1010 NOSIG
05:55
V
8 °C 10 km+ - 230° 230° 10 kt METAR EHAM 150355Z 23010KT 200V260 9999 FEW047 08/04 Q1011 NOSIG
05:25
V
9 °C 10 km+ - 220° 220° 9 kt METAR EHAM 150325Z 22009KT 9999 FEW020 09/06 Q1011 NOSIG
04:55
V
9 °C 10 km+ - 220° 220° 9 kt METAR EHAM 150255Z 22009KT 9999 FEW020 09/07 Q1012 NOSIG
04:25
V
9 °C 10 km+ - 210° 210° 9 kt METAR EHAM 150225Z 21009KT 9999 FEW025 09/07 Q1012 NOSIG
03:55
V
9 °C 10 km+ - 210° 210° 10 kt METAR EHAM 150155Z 21010KT 9999 FEW016 09/06 Q1012 NOSIG
03:25
V
10 °C 10 km+ - 210° 210° 12 kt METAR EHAM 150125Z 21012KT 170V230 9999 FEW019 10/06 Q1013 NOSIG
02:55
V
9 °C 10 km+ - 200° 200° 9 kt METAR EHAM 150055Z 20009KT CAVOK 09/06 Q1013 NOSIG
02:25
V
9 °C 10 km+ - 200° 200° 7 kt METAR EHAM 150025Z 20007KT CAVOK 09/05 Q1014 NOSIG
01:55
V
7 °C 10 km+ - 170° 170° 5 kt METAR EHAM 142355Z 17005KT CAVOK 07/04 Q1014 NOSIG
01:25
V
7 °C 10 km+ - 170° 170° 3 kt METAR EHAM 142325Z 17003KT CAVOK 07/03 Q1015 NOSIG
00:55
V
7 °C 10 km+ - 210° 210° 5 kt METAR EHAM 142255Z 21005KT CAVOK 07/02 Q1016 NOSIG
00:25
V
8 °C 10 km+ - 220° 220° 6 kt METAR EHAM 142225Z 22006KT CAVOK 08/03 Q1016 NOSIG

14 kwietnia 2024

Czas Kod Pogoda Temp. Widoczność Sufit Wiatr METAR/SPECI
23:55
V
9 °C 10 km+ - 240° 240° 8 kt METAR EHAM 142155Z 24008KT CAVOK 09/03 Q1017 NOSIG
23:25
V
10 °C 10 km+ - 230° 230° 8 kt METAR EHAM 142125Z 23008KT CAVOK 10/03 Q1017 NOSIG
22:55
V
10 °C 10 km+ - 220° 220° 6 kt METAR EHAM 142055Z 22006KT CAVOK 10/02 Q1017 NOSIG
22:25
V
10 °C 10 km+ - 220° 220° 4 kt METAR EHAM 142025Z 22004KT CAVOK 10/03 Q1018 NOSIG
21:55
V
9 °C 10 km+ - 210° 210° 3 kt METAR EHAM 141955Z 21003KT 170V280 CAVOK 09/02 Q1018 NOSIG
21:25
V
9 °C 10 km+ - 270° 270° 3 kt METAR EHAM 141925Z 27003KT 9999 FEW045 09/01 Q1018 NOSIG
20:55
V
9 °C 10 km+ - 310° 310° 3 kt METAR EHAM 141855Z 31003KT 280V340 9999 FEW045 09/02 Q1018 NOSIG
20:25
V
10 °C 10 km+ - 320° 320° 3 kt METAR EHAM 141825Z 32003KT 300V010 CAVOK 10/02 Q1019 NOSIG
19:55
V
10 °C 10 km+ - 280° 280° 5 kt METAR EHAM 141755Z 28005KT 230V310 CAVOK 10/01 Q1019 NOSIG
19:25
V
11 °C 10 km+ - 260° 260° 5 kt METAR EHAM 141725Z 26005KT 230V290 CAVOK 11/01 Q1020 NOSIG
18:55
V
11 °C 10 km+ - 290° 290° 5 kt METAR EHAM 141655Z 29005KT 240V320 CAVOK 11/02 Q1020 NOSIG
18:25
V
12 °C 10 km+ - 280° 280° 7 kt METAR EHAM 141625Z 28007KT 230V310 CAVOK 12/03 Q1021 NOSIG
17:55
V
12 °C 10 km+ - 270° 270° 7 kt METAR EHAM 141555Z 27007KT 220V310 9999 FEW038 12/03 Q1021 NOSIG
17:25
V
12 °C 10 km+ - 300° 300° 9 kt METAR EHAM 141525Z 30009KT 260V340 9999 FEW038 12/02 Q1021 NOSIG
16:55
V
12 °C 10 km+ - 280° 280° 8 kt METAR EHAM 141455Z 28008KT 230V320 9999 FEW038 12/02 Q1021 NOSIG
16:25
V
13 °C 10 km+ - 270° 270° 13 kt METAR EHAM 141425Z 27013KT 230V290 9999 FEW038 13/03 Q1022 NOSIG
15:55
V
13 °C 10 km+ - 270° 270° 12 kt METAR EHAM 141355Z 27012KT 230V300 9999 FEW035 13/02 Q1022 NOSIG
15:25
V
12 °C 10 km+ - 280° 280° 13 kt METAR EHAM 141325Z 28013KT 250V320 9999 FEW032 12/05 Q1022 NOSIG
14:55
V
12 °C 10 km+ - 270° 270° 14 kt METAR EHAM 141255Z 27014KT 230V300 9999 FEW030 12/05 Q1022 NOSIG
14:25
V
13 °C 10 km+ - 270° 270° 16 kt METAR EHAM 141225Z 27016KT 9999 FEW030 13/05 Q1022 NOSIG
13:55
V
13 °C 10 km+ - 270° 270° 14 kt METAR EHAM 141155Z 27014KT 240V300 9999 FEW028 13/05 Q1022 NOSIG
13:25
V
13 °C 10 km+ - 280° 280° 13 kt METAR EHAM 141125Z 28013KT 250V310 9999 FEW040 13/05 Q1023 NOSIG
12:55
V
13 °C 10 km+ - 280° 280° 14 kt METAR EHAM 141055Z 28014KT 250V310 9999 FEW038 13/04 Q1023 NOSIG
12:25
V
13 °C 10 km+ - 270° 270° 15 kt METAR EHAM 141025Z 27015KT 230V300 9999 FEW035 13/04 Q1023 NOSIG
11:55
V
12 °C 10 km+ - 280° 280° 14 kt METAR EHAM 140955Z 28014KT 9999 FEW035 12/05 Q1023 NOSIG
11:25
V
12 °C 10 km+ - 280° 280° 12 kt METAR EHAM 140925Z 28012KT 260V320 9999 FEW034 12/04 Q1023 NOSIG
10:55
V
12 °C 10 km+ - 270° 270° 12 kt METAR EHAM 140855Z 27012KT 9999 FEW032 12/05 Q1023 NOSIG
10:25
V
12 °C 10 km+ - 300° 300° 11 kt METAR EHAM 140825Z 30011KT 9999 FEW025 12/04 Q1023 NOSIG
09:55
V
11 °C 10 km+ - 300° 300° 13 kt METAR EHAM 140755Z 30013KT 9999 FEW024 11/04 Q1023 NOSIG
09:25
V
11 °C 10 km+ - 300° 300° 12 kt METAR EHAM 140725Z 30012KT 270V330 9999 FEW022 11/04 Q1022 NOSIG
08:55
V
11 °C 10 km+ - 280° 280° 11 kt METAR EHAM 140655Z 28011KT 250V320 9999 FEW022 11/06 Q1022 NOSIG
08:25
V
11 °C 10 km+ - 300° 300° 6 kt METAR EHAM 140625Z 30006KT 260V330 9999 FEW022 11/07 Q1022 NOSIG
07:55
V
10 °C 10 km+ - 300° 300° 6 kt METAR EHAM 140555Z 30006KT 9999 FEW015 10/06 Q1022 NOSIG
07:25
V
10 °C 10 km+ - 300° 300° 6 kt METAR EHAM 140525Z 30006KT CAVOK 10/06 Q1022 NOSIG
06:55
V
9 °C 10 km+ - 300° 300° 4 kt METAR EHAM 140455Z 30004KT 280V340 CAVOK 09/05 Q1021 NOSIG
06:25
V
10 °C 10 km+ - 300° 300° 9 kt METAR EHAM 140425Z 30009KT 9999 FEW048 10/05 Q1021 NOSIG
05:55
V
10 °C 10 km+ - 310° 310° 8 kt METAR EHAM 140355Z 31008KT 9999 FEW048 10/05 Q1021 NOSIG
05:25
V
11 °C 10 km+ - 300° 300° 9 kt METAR EHAM 140325Z 30009KT 9999 SCT046 11/06 Q1021 NOSIG
04:55
V
11 °C 10 km+ - 300° 300° 8 kt METAR EHAM 140255Z 30008KT 9999 SCT043 11/07 Q1021 NOSIG
04:25
V
11 °C 10 km+ 3.600 ft 300° 300° 8 kt METAR EHAM 140225Z 30008KT 9999 BKN036 11/08 Q1021 NOSIG
03:55
V
11 °C 10 km+ - 310° 310° 9 kt METAR EHAM 140155Z 31009KT 9999 SCT036 11/07 Q1020 NOSIG
03:25
V
11 °C 10 km+ - 310° 310° 10 kt METAR EHAM 140125Z 31010KT 9999 FEW034 11/07 Q1020 NOSIG
02:55
V
12 °C 10 km+ - 310° 310° 10 kt METAR EHAM 140055Z 31010KT 9999 FEW044 12/07 Q1020 NOSIG
02:25
V
12 °C 10 km+ - 310° 310° 12 kt METAR EHAM 140025Z 31012KT 9999 FEW037 12/08 Q1020 NOSIG
01:55
V
13 °C 10 km+ - 300° 300° 14 kt METAR EHAM 132355Z 30014KT 270V330 9999 FEW019 13/10 Q1020 NOSIG
01:25
V
14 °C 10 km+ - 270° 270° 12 kt METAR EHAM 132325Z 27012KT 9999 FEW038 14/10 Q1019 NOSIG
00:55
V
14 °C 10 km+ - 270° 270° 13 kt METAR EHAM 132255Z 27013KT 9999 FEW035 14/10 Q1019 NOSIG
00:25
V
14 °C 10 km+ - 260° 260° 15 kt METAR EHAM 132225Z 26015KT CAVOK 14/09 Q1019 NOSIG

13 kwietnia 2024

Czas Kod Pogoda Temp. Widoczność Sufit Wiatr METAR/SPECI
23:55
V
14 °C 10 km+ - 260° 260° 17 kt METAR EHAM 132155Z 26017KT CAVOK 14/09 Q1018 NOSIG
23:25
V
15 °C 10 km+ - 260° 260° 16 kt METAR EHAM 132125Z 26016KT CAVOK 15/08 Q1018 NOSIG
22:55
V
15 °C 10 km+ - 250° 250° 17 kt METAR EHAM 132055Z 25017KT CAVOK 15/09 Q1018 NOSIG
22:25
V
15 °C 10 km+ - 250° 250° 18 kt METAR EHAM 132025Z 25018KT CAVOK 15/10 Q1018 NOSIG
21:55
V
16 °C 10 km+ - 250° 250° 18 - 28 kt METAR EHAM 131955Z 25018G28KT CAVOK 16/10 Q1018 NOSIG
21:25
V
17 °C 10 km+ - 240° 240° 21 kt METAR EHAM 131925Z 24021KT 210V270 CAVOK 17/10 Q1018 NOSIG
20:55
V
17 °C 10 km+ - 240° 240° 20 - 30 kt METAR EHAM 131855Z 24020G30KT 210V270 CAVOK 17/09 Q1018 NOSIG
20:25
V
18 °C 10 km+ - 240° 240° 19 kt METAR EHAM 131825Z 24019KT 210V280 CAVOK 18/10 Q1018 NOSIG
19:55
V
18 °C 10 km+ - 260° 260° 16 kt METAR EHAM 131755Z 26016KT 230V290 CAVOK 18/11 Q1017 NOSIG
19:25
V
19 °C 10 km+ - 230° 230° 14 kt METAR EHAM 131725Z 23014KT CAVOK 19/11 Q1018 NOSIG
18:55
V
19 °C 10 km+ - 240° 240° 17 kt METAR EHAM 131655Z 24017KT CAVOK 19/11 Q1018 NOSIG
18:25
V
20 °C 10 km+ - 240° 240° 18 kt METAR EHAM 131625Z 24018KT 210V270 CAVOK 20/11 Q1018 NOSIG
17:55
V
20 °C 10 km+ - 240° 240° 16 kt METAR EHAM 131555Z 24016KT 210V270 9999 FEW035 20/13 Q1018 NOSIG
17:25
V
21 °C 10 km+ - 230° 230° 19 kt METAR EHAM 131525Z 23019KT 210V270 9999 FEW037 21/13 Q1019 NOSIG
16:55
V
21 °C 10 km+ - 220° 220° 19 kt METAR EHAM 131455Z 22019KT 200V260 9999 FEW037 21/13 Q1019 NOSIG
16:25
V
22 °C 10 km+ - 230° 230° 21 kt METAR EHAM 131425Z 23021KT 9999 FEW037 22/13 Q1019 NOSIG
15:55
V
21 °C 10 km+ - 230° 230° 18 kt METAR EHAM 131355Z 23018KT 200V260 9999 FEW037 21/11 Q1020 NOSIG
15:25
V
21 °C 10 km+ - 240° 240° 15 kt METAR EHAM 131325Z 24015KT 210V280 9999 FEW033 21/13 Q1021 NOSIG
14:55
V
21 °C 10 km+ - 220° 220° 19 kt METAR EHAM 131255Z 22019KT 200V260 9999 FEW032 21/13 Q1021 NOSIG
14:25
V
21 °C 10 km+ - 210° 210° 18 kt METAR EHAM 131225Z 21018KT 9999 FEW028 21/13 Q1021 NOSIG
13:55
V
20 °C 10 km+ - 210° 210° 14 kt METAR EHAM 131155Z 21014KT 170V240 9999 FEW028 20/14 Q1022 NOSIG
13:25
V
20 °C 10 km+ - 210° 210° 15 kt METAR EHAM 131125Z 21015KT 180V240 9999 FEW029 20/14 Q1022 NOSIG
12:55
V
19 °C 10 km+ - 210° 210° 11 kt METAR EHAM 131055Z 21011KT 9999 FEW029 19/13 Q1022 NOSIG
12:25
V
19 °C 10 km+ - 210° 210° 14 kt METAR EHAM 131025Z 21014KT 9999 FEW027 19/13 Q1023 NOSIG
11:55
V
18 °C 10 km+ - 210° 210° 13 kt METAR EHAM 130955Z 21013KT 160V230 9999 FEW027 18/13 Q1023 NOSIG
11:25
V
18 °C 10 km+ - 210° 210° 12 kt METAR EHAM 130925Z 21012KT 9999 FEW027 18/13 Q1023 NOSIG
10:55
V
17 °C 10 km+ - 200° 200° 11 kt METAR EHAM 130855Z 20011KT 9999 FEW030 17/12 Q1024 NOSIG
10:25
V
16 °C 10 km+ - 200° 200° 9 kt METAR EHAM 130825Z 20009KT 170V240 9999 FEW034 16/12 Q1024 NOSIG
09:55
V
16 °C 10 km+ - 220° 220° 9 kt METAR EHAM 130755Z 22009KT 9999 FEW035 16/12 Q1024 NOSIG
09:25
V
15 °C 10 km+ - 210° 210° 9 kt METAR EHAM 130725Z 21009KT 9999 FEW035 15/11 Q1024 NOSIG
08:55
V
14 °C 10 km+ - 210° 210° 7 kt METAR EHAM 130655Z 21007KT CAVOK 14/11 Q1024 NOSIG
08:25
V
13 °C 10 km+ - 190° 190° 6 kt METAR EHAM 130625Z 19006KT CAVOK 13/11 Q1025 NOSIG
07:55
V
13 °C 10 km+ - 200° 200° 7 kt METAR EHAM 130555Z 20007KT CAVOK 13/11 Q1025 NOSIG
Zgłoś zmianę